Terminal Aerodrome Forecast
Issued by NWS Green Bay, WI

Home | Current Version | Previous Version | Text Only | Print | Product List | Glossary Off
Versions: 1 2 3 4 5 6 7 8 9 10 11 12 13 14 15 16 17 18 19 20 21 22 23 24 25 26 27 28

402
FTUS43 KGRB 010530
TAFGRB
TAF
KGRB 010530Z 0106/0206 26005KT P6SM -RA OVC011
      TEMPO 0106/0110 -RASN OVC007
     FM011000 27006KT 6SM -RASN BR OVC008
     FM011400 28010KT P6SM OVC015
     FM011700 28011KT P6SM BKN025
     FM012300 29008KT P6SM BKN035 BKN050=

USA.gov is the U.S. government's official web portal to all federal, state and local government web resources and services.